createdAt,value
2023-03-27T00:05:08.556Z,98466.41
2023-03-27T00:11:10.567Z,98483.34
2023-03-27T00:17:13.332Z,98493.84
2023-03-27T00:23:15.618Z,98508.19
2023-03-27T00:29:18.181Z,98523.72
2023-03-27T00:35:20.174Z,98537.94
2023-03-27T00:41:22.799Z,98546.13
2023-03-27T00:47:35.593Z,98552.06
2023-03-27T00:53:37.813Z,98553.66
2023-03-27T00:59:42.706Z,98568.63
2023-03-27T01:05:44.766Z,98575.88
2023-03-27T01:12:11.007Z,98576.97
2023-03-27T01:18:38.215Z,98585.63
2023-03-27T01:24:57.762Z,98588.47
2023-03-27T01:31:07.011Z,98591.88
2023-03-27T01:37:33.653Z,98602.59
2023-03-27T01:44:03.663Z,98618.16
2023-03-27T01:50:43.768Z,98632.59
2023-03-27T01:56:54.789Z,98638.91
2023-03-27T02:03:09.635Z,98651.84
2023-03-27T02:09:38.813Z,98661.47
2023-03-27T02:15:43.478Z,98672.41
2023-03-27T02:21:48.077Z,98690.47
2023-03-27T02:28:05.004Z,98704.34
2023-03-27T02:34:49.238Z,98708.28
2023-03-27T02:41:01.438Z,98723.56
2023-03-27T02:47:38.819Z,98736.09
2023-03-27T02:54:01.090Z,98734.22
2023-03-27T03:00:05.461Z,98749.41
2023-03-27T03:06:07.812Z,98758.00
2023-03-27T03:12:10.545Z,98767.53
2023-03-27T03:18:13.057Z,98777.72
2023-03-27T03:24:15.245Z,98785.03
2023-03-27T03:30:18.323Z,98794.44
2023-03-27T03:36:20.210Z,98808.28
2023-03-27T03:42:23.592Z,98818.03
2023-03-27T03:48:27.358Z,98833.59
2023-03-27T03:54:29.286Z,98854.53
2023-03-27T04:00:34.538Z,98859.53
2023-03-27T04:06:39.024Z,98876.78
2023-03-27T04:12:41.335Z,98890.38
2023-03-27T04:18:43.536Z,98892.56
2023-03-27T04:24:45.644Z,98897.69
2023-03-27T04:30:50.505Z,98907.03
2023-03-27T04:36:52.673Z,98918.91
2023-03-27T04:42:55.932Z,98926.06
2023-03-27T04:48:57.889Z,98934.19
2023-03-27T04:55:01.571Z,98939.78
2023-03-27T05:01:03.588Z,98947.56
2023-03-27T05:07:05.804Z,98951.28
2023-03-27T05:13:08.221Z,98964.31
2023-03-27T05:19:11.256Z,98963.50
2023-03-27T05:25:13.747Z,98969.16
2023-03-27T05:31:15.680Z,98969.50
2023-03-27T05:37:18.089Z,98980.91
2023-03-27T05:43:20.029Z,98987.81
2023-03-27T05:49:22.101Z,99007.69
2023-03-27T05:55:27.039Z,99010.88
2023-03-27T06:01:30.294Z,99018.25
2023-03-27T06:07:32.170Z,99038.13
2023-03-27T06:13:34.045Z,99035.88
2023-03-27T06:19:36.042Z,99045.69
2023-03-27T06:25:39.369Z,99049.16
2023-03-27T06:31:41.473Z,99054.03
2023-03-27T06:37:50.693Z,99065.41
2023-03-27T06:43:52.882Z,99084.78
2023-03-27T06:49:54.728Z,99088.06
2023-03-27T06:55:57.598Z,99102.78
2023-03-27T07:01:59.749Z,99103.19
2023-03-27T07:08:11.377Z,99118.56
2023-03-27T07:14:24.233Z,99125.72
2023-03-27T07:20:29.196Z,99130.97
2023-03-27T07:26:32.566Z,99138.00
2023-03-27T07:32:38.310Z,99135.19
2023-03-27T07:38:44.158Z,99145.91
2023-03-27T07:44:46.163Z,99153.84
2023-03-27T07:50:48.121Z,99161.00
2023-03-27T07:56:50.285Z,99169.78
2023-03-27T08:02:52.597Z,99172.50
2023-03-27T08:08:54.603Z,99171.63
2023-03-27T08:14:56.548Z,99186.66
2023-03-27T08:21:00.529Z,99177.56
2023-03-27T08:27:03.467Z,99192.72
2023-03-27T08:33:05.556Z,99185.69
2023-03-27T08:39:08.226Z,99196.84
2023-03-27T08:45:24.221Z,99200.81
2023-03-27T08:52:03.847Z,99212.47
2023-03-27T08:58:05.826Z,99214.25
2023-03-27T09:04:44.235Z,99218.94
2023-03-27T09:11:15.834Z,99209.94
2023-03-27T09:17:25.928Z,99231.41
2023-03-27T09:23:59.121Z,99232.47
2023-03-27T09:30:13.520Z,99229.66
2023-03-27T09:36:15.698Z,99239.09
2023-03-27T09:42:30.641Z,99222.69
2023-03-27T09:48:47.581Z,99238.69
2023-03-27T09:54:55.900Z,99242.78
2023-03-27T10:01:34.327Z,99238.56
2023-03-27T10:07:36.467Z,99257.44
2023-03-27T10:13:46.711Z,99248.97
2023-03-27T10:19:50.940Z,99244.06
2023-03-27T10:25:58.642Z,99251.94
2023-03-27T10:32:04.166Z,99258.13
2023-03-27T10:38:18.228Z,99265.59
2023-03-27T10:44:25.682Z,99261.19
2023-03-27T10:50:35.703Z,99256.75
2023-03-27T10:56:53.088Z,99252.16
2023-03-27T11:03:36.300Z,99240.06
2023-03-27T11:09:53.639Z,99247.78
2023-03-27T11:16:43.294Z,99269.75
2023-03-27T11:22:57.568Z,99275.22
2023-03-27T11:29:09.598Z,99280.81
2023-03-27T11:35:23.075Z,99293.56
2023-03-27T11:41:26.961Z,99282.13
2023-03-27T11:47:59.918Z,99285.34
2023-03-27T11:54:34.913Z,99278.38
2023-03-27T12:00:58.994Z,99303.00
2023-03-27T12:07:13.298Z,99309.69
2023-03-27T12:13:58.308Z,99316.91
2023-03-27T12:20:24.740Z,99321.22
2023-03-27T12:27:27.486Z,99356.94
2023-03-27T12:33:47.376Z,99341.88
2023-03-27T12:39:57.644Z,99332.41
2023-03-27T12:46:24.511Z,99333.16
2023-03-27T12:52:27.487Z,99329.56
2023-03-27T12:58:35.067Z,99344.50
2023-03-27T13:04:51.331Z,99337.38
2023-03-27T13:11:14.753Z,99412.03
2023-03-27T13:18:02.447Z,99383.16
2023-03-27T13:24:30.089Z,99367.34
2023-03-27T13:30:55.657Z,99377.84
2023-03-27T13:37:36.623Z,99380.69
2023-03-27T13:43:39.026Z,99392.88
2023-03-27T13:50:14.914Z,99388.44
2023-03-27T13:56:31.889Z,99380.50
2023-03-27T14:03:00.994Z,99384.28
2023-03-27T14:09:37.579Z,99413.63
2023-03-27T14:15:53.887Z,99429.16
2023-03-27T14:22:23.622Z,99429.97
2023-03-27T14:28:58.803Z,99429.00
2023-03-27T14:35:10.214Z,99422.72
2023-03-27T14:41:26.595Z,99417.91
2023-03-27T14:47:28.830Z,99426.28
2023-03-27T14:53:37.955Z,99434.69
2023-03-27T14:59:43.959Z,99433.47
2023-03-27T15:06:14.773Z,99440.81
2023-03-27T15:12:16.686Z,99441.38
2023-03-27T15:18:24.673Z,99430.13
2023-03-27T15:25:17.658Z,99427.44
2023-03-27T15:31:20.154Z,99415.84
2023-03-27T15:37:28.695Z,99418.00
2023-03-27T15:43:31.315Z,99442.44
2023-03-27T15:49:38.652Z,99460.91
2023-03-27T15:55:48.736Z,99465.00
2023-03-27T16:01:54.252Z,99475.75
2023-03-27T16:07:56.487Z,99475.72
2023-03-27T16:13:59.139Z,99490.91
2023-03-27T16:20:22.944Z,99488.13
2023-03-27T16:26:33.269Z,99486.06
2023-03-27T16:32:36.149Z,99491.75
2023-03-27T16:38:40.806Z,99487.81
2023-03-27T16:44:44.034Z,99499.59
2023-03-27T16:50:46.228Z,99501.56
2023-03-27T16:56:48.246Z,99510.84
2023-03-27T17:02:50.387Z,99504.56
2023-03-27T17:08:55.960Z,99516.38
2023-03-27T17:14:57.967Z,99533.00
2023-03-27T17:20:59.965Z,99551.16
2023-03-27T17:27:01.847Z,99559.81
2023-03-27T17:33:05.048Z,99557.81
2023-03-27T17:39:07.656Z,99557.84
2023-03-27T17:45:10.420Z,99566.47
2023-03-27T17:51:12.331Z,99566.56
2023-03-27T17:57:14.298Z,99575.81
2023-03-27T18:03:16.801Z,99568.34
2023-03-27T18:09:18.960Z,99584.53
2023-03-27T18:15:20.962Z,99594.97
2023-03-27T18:21:23.095Z,99591.91
2023-03-27T18:27:25.131Z,99591.88
2023-03-27T18:33:27.022Z,99619.72
2023-03-27T18:39:29.158Z,99624.38
2023-03-27T18:45:31.067Z,99628.66
2023-03-27T18:51:33.253Z,99631.47
2023-03-27T18:57:36.022Z,99638.88
2023-03-27T19:03:39.069Z,99654.16
2023-03-27T19:09:41.872Z,99659.84
2023-03-27T19:15:43.934Z,99653.53
2023-03-27T19:21:46.048Z,99646.69
2023-03-27T19:27:47.945Z,99660.81
2023-03-27T19:33:49.837Z,99653.97
2023-03-27T19:39:52.049Z,99663.19
2023-03-27T19:46:14.091Z,99670.00
2023-03-27T19:52:19.758Z,99678.25
2023-03-27T19:58:22.688Z,99680.59
2023-03-27T20:04:24.643Z,99692.38
2023-03-27T20:10:27.118Z,99699.22
2023-03-27T20:16:29.317Z,99690.16
2023-03-27T20:22:38.644Z,99680.88
2023-03-27T20:28:45.394Z,99678.66
2023-03-27T20:34:48.898Z,99691.59
2023-03-27T20:40:53.713Z,99698.28
2023-03-27T20:47:03.212Z,99687.97
2023-03-27T20:53:05.150Z,99692.59
2023-03-27T20:59:07.659Z,99700.94
2023-03-27T21:05:10.079Z,99704.28
2023-03-27T21:11:12.185Z,99707.63
2023-03-27T21:17:14.106Z,99705.97
2023-03-27T21:23:15.992Z,99702.75
2023-03-27T21:29:18.279Z,99712.25
2023-03-27T21:35:20.302Z,99717.38
2023-03-27T21:41:22.378Z,99714.88
2023-03-27T21:47:31.680Z,99722.69
2023-03-27T21:53:39.375Z,99715.16
2023-03-27T21:59:41.532Z,99721.16
2023-03-27T22:05:45.952Z,99715.16
2023-03-27T22:11:51.241Z,99706.91
2023-03-27T22:17:53.184Z,99724.50
2023-03-27T22:23:57.315Z,99720.47
2023-03-27T22:29:59.346Z,99740.09
2023-03-27T22:36:01.640Z,99736.50
2023-03-27T22:42:03.823Z,99739.13
2023-03-27T22:48:08.451Z,99751.41
2023-03-27T22:54:10.365Z,99757.69
2023-03-27T23:00:13.142Z,99758.09
2023-03-27T23:06:21.965Z,99765.16
2023-03-27T23:12:23.876Z,99770.34
2023-03-27T23:18:25.948Z,99768.94
2023-03-27T23:24:27.833Z,99762.66
2023-03-27T23:30:29.751Z,99771.28
2023-03-27T23:36:31.672Z,99780.78
2023-03-27T23:42:33.629Z,99764.63
2023-03-27T23:48:36.346Z,99767.41
2023-03-27T23:54:38.453Z,99779.22
